createdAt,value
2024-04-08T00:05:10.254Z,21
2024-04-08T00:10:30.816Z,21
2024-04-08T00:15:52.076Z,20.9
2024-04-08T00:21:14.014Z,21
2024-04-08T00:26:35.035Z,20.9
2024-04-08T00:31:55.970Z,21
2024-04-08T00:37:02.218Z,20.9
2024-04-08T00:42:26.086Z,21
2024-04-08T00:47:47.439Z,20.9
2024-04-08T00:53:09.279Z,21
2024-04-08T00:58:30.495Z,20.9
2024-04-08T01:03:51.207Z,20.9
2024-04-08T01:09:12.606Z,20.9
2024-04-08T01:14:50.558Z,20.9
2024-04-08T01:20:26.715Z,20.9
2024-04-08T01:26:03.632Z,20.9
2024-04-08T01:31:45.076Z,20.9
2024-04-08T01:37:21.820Z,20.9
2024-04-08T01:42:28.101Z,20.9
2024-04-08T01:48:04.680Z,20.9
2024-04-08T01:53:25.729Z,20.9
2024-04-08T01:58:47.306Z,20.9
2024-04-08T02:04:24.258Z,20.9
2024-04-08T02:10:00.892Z,20.9
2024-04-08T02:15:37.341Z,20.9
2024-04-08T02:20:58.664Z,20.9
2024-04-08T02:26:35.582Z,20.9
2024-04-08T02:32:13.013Z,20.9
2024-04-08T02:37:49.773Z,20.9
2024-04-08T02:43:27.068Z,20.8
2024-04-08T02:49:04.303Z,20.8
2024-04-08T02:54:40.164Z,20.8
2024-04-08T03:00:03.528Z,20.8
2024-04-08T03:05:24.842Z,20.8
2024-04-08T03:10:49.555Z,20.8
2024-04-08T03:16:14.089Z,20.8
2024-04-08T03:21:35.357Z,20.7
2024-04-08T03:26:56.310Z,20.8
2024-04-08T03:32:36.657Z,20.7
2024-04-08T03:38:14.018Z,20.7
2024-04-08T03:43:52.950Z,20.7
2024-04-08T03:49:29.087Z,20.7
2024-04-08T03:55:08.723Z,20.7
2024-04-08T04:00:46.471Z,20.7
2024-04-08T04:06:22.978Z,20.7
2024-04-08T04:11:59.710Z,20.7
2024-04-08T04:17:35.604Z,20.6
2024-04-08T04:23:12.427Z,20.6
2024-04-08T04:28:33.050Z,20.6
2024-04-08T04:34:11.631Z,20.6
2024-04-08T04:39:48.813Z,20.6
2024-04-08T04:45:25.982Z,20.6
2024-04-08T04:51:02.178Z,20.6
2024-04-08T04:56:39.959Z,20.6
2024-04-08T05:02:01.278Z,20.6
2024-04-08T05:07:37.779Z,20.5
2024-04-08T05:13:14.546Z,20.5
2024-04-08T05:18:53.557Z,20.4
2024-04-08T05:24:29.785Z,20.5
2024-04-08T05:30:09.841Z,20.4
2024-04-08T05:35:46.360Z,20.4
2024-04-08T05:41:23.395Z,20.4
2024-04-08T05:46:45.279Z,20.5
2024-04-08T05:52:22.829Z,20.5
2024-04-08T05:57:59.454Z,22.9
2024-04-08T06:03:36.601Z,24.4
2024-04-08T06:09:13.223Z,22.9
2024-04-08T06:14:50.188Z,24.4
2024-04-08T06:20:26.407Z,27.5
2024-04-08T06:26:06.523Z,28.5
2024-04-08T06:31:43.499Z,29.4
2024-04-08T06:37:20.388Z,30.2
2024-04-08T06:42:57.740Z,31.1
2024-04-08T06:48:35.274Z,31.8
2024-04-08T06:54:15.882Z,28.1
2024-04-08T06:59:52.787Z,27
2024-04-08T07:05:31.194Z,27.8
2024-04-08T07:11:08.411Z,28.8
2024-04-08T07:16:49.520Z,30
2024-04-08T07:22:29.346Z,31.2
2024-04-08T07:28:06.339Z,32.4
2024-04-08T07:33:28.599Z,33.4
2024-04-08T07:39:18.236Z,34.4
2024-04-08T07:44:59.920Z,35.4
2024-04-08T07:50:36.928Z,36.3
2024-04-08T07:56:14.345Z,37.2
2024-04-08T08:01:54.854Z,38.1
2024-04-08T08:07:32.215Z,38.9
2024-04-08T08:13:10.506Z,39.8
2024-04-08T08:18:52.305Z,40.6
2024-04-08T08:24:32.999Z,41.3
2024-04-08T08:29:54.266Z,42
2024-04-08T08:35:31.634Z,42.7
2024-04-08T08:41:09.413Z,43.3
2024-04-08T08:46:46.227Z,44
2024-04-08T08:52:08.563Z,44.5
2024-04-08T08:57:45.383Z,45.2
2024-04-08T09:03:26.766Z,45.6
2024-04-08T09:09:09.288Z,46.2
2024-04-08T09:14:46.544Z,46.7
2024-04-08T09:20:07.880Z,47.2
2024-04-08T09:25:29.723Z,47.6
2024-04-08T09:31:12.109Z,48.1
2024-04-08T09:36:49.239Z,48.8
2024-04-08T09:42:10.643Z,49.1
2024-04-08T09:47:47.872Z,49.6
2024-04-08T09:53:29.029Z,49.9
2024-04-08T09:58:59.708Z,49.3
2024-04-08T10:04:20.930Z,49
2024-04-08T10:09:29.469Z,49.8
2024-04-08T10:14:54.122Z,50.5
2024-04-08T10:20:19.997Z,51.3
2024-04-08T10:25:31.388Z,51.6
2024-04-08T10:30:52.825Z,48.2
2024-04-08T10:36:17.279Z,49.3
2024-04-08T10:41:57.012Z,50.6
2024-04-08T10:47:35.684Z,51.7
2024-04-08T10:53:13.275Z,52.4
2024-04-08T10:58:50.815Z,53.2
2024-04-08T11:04:29.831Z,53.8
2024-04-08T11:10:08.489Z,54.3
2024-04-08T11:15:45.842Z,53.9
2024-04-08T11:21:11.218Z,54.4
2024-04-08T11:26:55.860Z,54.9
2024-04-08T11:32:26.269Z,55.3
2024-04-08T11:38:12.962Z,55.7
2024-04-08T11:44:02.145Z,56.1
2024-04-08T11:49:47.293Z,56.4
2024-04-08T11:55:25.557Z,56.7
2024-04-08T12:01:04.068Z,57.1
2024-04-08T12:06:24.837Z,57.3
2024-04-08T12:12:01.632Z,57.5
2024-04-08T12:17:23.895Z,57.6
2024-04-08T12:22:32.745Z,57.8
2024-04-08T12:28:09.276Z,58
2024-04-08T12:33:49.252Z,58.1
2024-04-08T12:39:10.831Z,58.3
2024-04-08T12:44:44.828Z,58.3
2024-04-08T12:50:22.082Z,58.5
2024-04-08T12:55:47.750Z,58.5
2024-04-08T13:01:11.465Z,58.5
2024-04-08T13:16:53.844Z,58.5
2024-04-08T13:22:16.605Z,58.5
2024-04-08T13:27:59.609Z,58.4
2024-04-08T13:33:41.800Z,58.3
2024-04-08T13:39:23.358Z,58.1
2024-04-08T13:44:59.426Z,57.9
2024-04-08T13:50:37.857Z,57.7
2024-04-08T13:56:18.594Z,57.5
2024-04-08T14:01:40.714Z,57.2
2024-04-08T14:07:20.017Z,56.8
2024-04-08T14:12:57.097Z,56.4
2024-04-08T14:18:36.901Z,56.1
2024-04-08T14:24:18.258Z,55.6
2024-04-08T14:30:08.779Z,55.3
2024-04-08T14:35:31.973Z,54.8
2024-04-08T14:42:32.606Z,54.2
2024-04-08T14:48:45.699Z,53.4
2024-04-08T14:54:52.574Z,52.7
2024-04-08T15:00:40.951Z,52.1
2024-04-08T15:06:19.127Z,51.5
2024-04-08T15:12:03.980Z,50.9
2024-04-08T15:17:42.186Z,50.4
2024-04-08T15:23:19.023Z,46.7
2024-04-08T15:28:55.008Z,48.3
2024-04-08T15:34:37.424Z,45
2024-04-08T15:39:59.767Z,42.6
2024-04-08T15:45:36.721Z,40.9
2024-04-08T15:51:15.582Z,39.9
2024-04-08T15:56:37.250Z,39.1
2024-04-08T16:02:13.749Z,38.4
2024-04-08T16:07:55.150Z,37.9
2024-04-08T16:13:32.132Z,37.5
2024-04-08T16:19:10.684Z,37.1
2024-04-08T16:25:35.207Z,36.8
2024-04-08T16:31:00.729Z,36.4
2024-04-08T16:36:38.176Z,36.1
2024-04-08T16:42:16.336Z,35.4
2024-04-08T16:47:53.253Z,32.6
2024-04-08T16:53:30.239Z,30.9
2024-04-08T16:58:53.863Z,29.9
2024-04-08T17:04:00.517Z,29.3
2024-04-08T17:09:22.965Z,28.8
2024-04-08T17:15:01.225Z,28.4
2024-04-08T17:20:25.194Z,28.1
2024-04-08T17:26:01.750Z,27.9
2024-04-08T17:37:04.822Z,27.7
2024-04-08T17:42:11.412Z,27.6
2024-04-08T17:47:58.293Z,27.6
2024-04-08T17:53:36.886Z,27.5
2024-04-08T17:58:44.740Z,27.4
2024-04-08T18:04:09.630Z,27.4
2024-04-08T18:09:51.698Z,27.4
2024-04-08T18:15:20.865Z,27.3
2024-04-08T18:21:06.395Z,26.9
2024-04-08T18:26:42.946Z,26.3
2024-04-08T18:31:49.045Z,25.9
2024-04-08T18:37:30.834Z,25.7
2024-04-08T18:42:54.571Z,25.5
2024-04-08T18:48:31.988Z,25.2
2024-04-08T18:53:56.441Z,24.8
2024-04-08T18:59:20.926Z,24.6
2024-04-08T19:05:09.561Z,24.3
2024-04-08T19:10:31.911Z,24.3
2024-04-08T19:16:04.115Z,24.1
2024-04-08T19:21:46.881Z,24.1
2024-04-08T19:27:29.100Z,23.7
2024-04-08T19:33:06.317Z,22.4
2024-04-08T19:38:42.891Z,21.5
2024-04-08T19:44:20.838Z,21.1
2024-04-08T19:50:31.288Z,20.8
2024-04-08T19:56:13.823Z,20.6
2024-04-08T20:01:54.621Z,20.4
2024-04-08T20:07:32.077Z,20.3
2024-04-08T20:13:09.500Z,20.3
2024-04-08T20:18:47.891Z,20.2
2024-04-08T20:24:10.812Z,20.1
2024-04-08T20:29:49.041Z,20.1
2024-04-08T20:35:29.470Z,20.1
2024-04-08T20:40:50.819Z,20
2024-04-08T20:46:27.768Z,20
2024-04-08T20:52:15.547Z,19.9
2024-04-08T20:57:39.215Z,19.9
2024-04-08T21:02:46.622Z,19.9
2024-04-08T21:08:10.299Z,19.9
2024-04-08T21:13:47.762Z,19.9
2024-04-08T21:18:55.582Z,19.9
2024-04-08T21:24:17.830Z,19.9
2024-04-08T21:29:07.995Z,19.8
2024-04-08T21:34:15.141Z,19.8
2024-04-08T21:39:37.518Z,19.8
2024-04-08T21:45:01.440Z,19.8
2024-04-08T21:50:23.747Z,19.8
2024-04-08T21:55:45.682Z,19.8
2024-04-08T22:01:07.942Z,19.8
2024-04-08T22:06:30.398Z,19.8
2024-04-08T22:11:52.895Z,19.8
2024-04-08T22:17:14.825Z,19.8
2024-04-08T22:22:40.103Z,19.8
2024-04-08T22:28:04.087Z,19.8
2024-04-08T22:33:26.318Z,19.8
2024-04-08T22:38:32.785Z,19.8
2024-04-08T22:44:21.439Z,19.8
2024-04-08T22:49:42.602Z,19.8
2024-04-08T22:55:04.094Z,19.8
2024-04-08T23:00:42.054Z,19.8
2024-04-08T23:05:53.504Z,19.8
2024-04-08T23:11:17.189Z,19.7
2024-04-08T23:16:39.598Z,19.8
2024-04-08T23:22:05.390Z,19.8
2024-04-08T23:27:29.527Z,19.8
2024-04-08T23:33:07.684Z,19.8
2024-04-08T23:38:30.687Z,19.8
2024-04-08T23:43:21.922Z,19.8
2024-04-08T23:48:45.003Z,19.7
2024-04-08T23:54:05.658Z,19.8
2024-04-08T23:59:26.432Z,19.8
